createdAt,value
2018-06-29T00:06:30.690Z,1013.56
2018-06-29T00:16:30.706Z,1013.5
2018-06-29T00:26:30.696Z,1013.5
2018-06-29T00:36:30.676Z,1013.41
2018-06-29T00:46:30.719Z,1013.38
2018-06-29T00:56:30.698Z,1013.37
2018-06-29T01:06:30.758Z,1013.36
2018-06-29T01:16:30.724Z,1013.34
2018-06-29T01:26:30.671Z,1013.42
2018-06-29T01:36:30.749Z,1013.35
2018-06-29T01:46:30.798Z,1013.28
2018-06-29T01:56:30.769Z,1013.25
2018-06-29T02:06:30.711Z,1013.17
2018-06-29T02:16:30.810Z,1013.23
2018-06-29T02:26:30.755Z,1013.17
2018-06-29T02:36:30.836Z,1013.09
2018-06-29T02:46:30.768Z,1013.07
2018-06-29T02:56:30.836Z,1013.09
2018-06-29T03:06:30.786Z,1013.17
2018-06-29T03:16:30.878Z,1013.14
2018-06-29T03:26:30.827Z,1013.15
2018-06-29T03:36:30.896Z,1013.01
2018-06-29T03:46:30.836Z,1013.02
2018-06-29T03:56:30.900Z,1012.95
2018-06-29T04:06:30.879Z,1012.81
2018-06-29T04:16:30.956Z,1012.91
2018-06-29T04:26:30.981Z,1013.07
2018-06-29T04:36:30.868Z,1013.12
2018-06-29T04:46:30.916Z,1012.97
2018-06-29T04:56:30.874Z,1012.91
2018-06-29T05:06:30.948Z,1013.03
2018-06-29T05:16:30.916Z,1013.13
2018-06-29T05:26:30.978Z,1013.11
2018-06-29T05:36:30.948Z,1013.06
2018-06-29T05:46:31.005Z,1013.11
2018-06-29T05:56:30.909Z,1013.28
2018-06-29T06:06:30.904Z,1013.77
2018-06-29T06:16:30.930Z,1013.52
2018-06-29T06:26:30.931Z,1013.34
2018-06-29T06:36:31.026Z,1013.18
2018-06-29T06:46:30.935Z,1013.15
2018-06-29T06:56:30.925Z,1013.18
2018-06-29T07:06:30.944Z,1013.08
2018-06-29T07:16:30.934Z,1013.02
2018-06-29T07:26:30.937Z,1012.93
2018-06-29T07:36:30.955Z,1012.89
2018-06-29T07:46:31.064Z,1012.82
2018-06-29T07:56:30.988Z,1012.7
2018-06-29T08:06:30.963Z,1012.75
2018-06-29T08:16:31.141Z,1012.66
2018-06-29T08:26:31.048Z,1012.57
2018-06-29T08:36:30.973Z,1012.44
2018-06-29T08:46:30.981Z,1012.46
2018-06-29T08:56:31.205Z,1012.42
2018-06-29T09:06:31.035Z,1012.21
2018-06-29T09:16:30.970Z,1012.1
2018-06-29T09:26:31.002Z,1012.15
2018-06-29T09:36:30.999Z,1012.01
2018-06-29T09:46:31.017Z,1011.98
2018-06-29T09:56:31.003Z,1011.89
2018-06-29T10:06:31.060Z,1011.67
2018-06-29T10:16:31.040Z,1011.65
2018-06-29T10:26:31.006Z,1011.6
2018-06-29T10:36:31.022Z,1011.56
2018-06-29T10:46:31.011Z,1011.39
2018-06-29T10:56:31.019Z,1011.43
2018-06-29T11:06:31.038Z,1011.25
2018-06-29T11:16:31.028Z,1011.17
2018-06-29T11:26:31.085Z,1011.09
2018-06-29T11:36:31.044Z,1010.93
2018-06-29T11:46:31.162Z,1010.91
2018-06-29T12:16:31.034Z,1010.75
2018-06-29T12:36:32.064Z,1010.59
2018-06-29T12:46:31.051Z,1010.52
2018-06-29T12:56:31.039Z,1010.4
2018-06-29T13:06:31.034Z,1010.3
2018-06-29T13:16:31.055Z,1010.14
2018-06-29T13:26:31.037Z,1010.06
2018-06-29T13:36:31.047Z,1010.08
2018-06-29T13:46:31.054Z,1010.01
2018-06-29T13:56:31.073Z,1009.81
2018-06-29T14:06:31.040Z,1009.78
2018-06-29T14:16:31.064Z,1009.72
2018-06-29T14:26:31.054Z,1009.61
2018-06-29T14:36:31.076Z,1009.56
2018-06-29T14:46:32.281Z,1009.41
2018-06-29T14:56:31.072Z,1009.34
2018-06-29T15:06:31.080Z,1009.31
2018-06-29T15:16:31.067Z,1009.21
2018-06-29T15:26:31.067Z,1009.06
2018-06-29T15:56:31.357Z,1008.99
2018-06-29T16:06:31.077Z,1008.83
2018-06-29T16:16:31.147Z,1008.86
2018-06-29T16:26:31.265Z,1008.73
2018-06-29T16:36:31.811Z,1008.7
2018-06-29T16:46:31.103Z,1008.7
2018-06-29T16:56:31.096Z,1008.74
2018-06-29T17:06:31.092Z,1008.75
2018-06-29T17:16:31.110Z,1008.81
2018-06-29T17:26:31.125Z,1008.9
2018-06-29T17:36:31.147Z,1008.85
2018-06-29T17:46:31.215Z,1008.78
2018-06-29T17:56:31.123Z,1008.75
2018-06-29T18:06:31.205Z,1008.82
2018-06-29T18:16:31.108Z,1008.84
2018-06-29T18:26:31.286Z,1008.84
2018-06-29T18:36:31.123Z,1008.88
2018-06-29T19:16:32.241Z,1008.97
2018-06-29T19:26:33.229Z,1008.89
2018-06-29T19:56:31.154Z,1009.25
2018-06-29T20:06:34.424Z,1009.37
2018-06-29T20:26:34.797Z,1009.5
2018-06-29T20:46:36.447Z,1009.62
2018-06-29T20:56:31.148Z,1009.8
2018-06-29T21:06:31.155Z,1009.86
2018-06-29T21:16:31.145Z,1009.85
2018-06-29T21:26:31.148Z,1009.95
2018-06-29T21:36:31.123Z,1009.94
2018-06-29T21:46:31.155Z,1009.92
2018-06-29T21:56:31.116Z,1009.92
2018-06-29T22:06:31.152Z,1010
2018-06-29T22:16:31.120Z,1009.94
2018-06-29T22:26:31.737Z,1010.05
2018-06-29T22:36:31.123Z,1010.03
2018-06-29T22:46:31.130Z,1009.98
2018-06-29T22:56:31.144Z,1009.93
2018-06-29T23:06:31.367Z,1009.93
2018-06-29T23:16:31.156Z,1009.88
2018-06-29T23:26:31.130Z,1009.93
2018-06-29T23:36:31.142Z,1009.92
2018-06-29T23:46:31.126Z,1009.81
2018-06-29T23:56:31.229Z,1009.83
